Hanover, Maine
Current Conditions -  °F | °C
As of 7:04 AM on Wednesday 28 Jan 2015 (Local Time) from KBML Reporting Station
Overcast Overcast  
Wind Chill: -5°   Ceiling: 3100
Heat Index:   Visibility: 10mi
Dew Point: -2°   Wind: 7mph
Humidity: 67%   Direction: 320°NW
Pressure: 29.84"   Gusts: NA
Location:  44.5°N, 70.69°W
Report Text: KBML 281204Z AUTO 32006KT 10SM OVC031 M14/M19 A2984 RMK AO2 T11391189
Loading
Personal Weather Stations






























Interactive Weather Map New forecast layout! Learn more

10-Day Weather Forecast

Advertisements
Track Severe Weather on mobile